createdAt,value
2016-09-26T20:03:34.160Z,-68
2016-09-26T20:04:20.001Z,-72
2016-09-26T20:09:12.661Z,-76
2016-09-26T20:14:08.754Z,-86
2016-09-26T20:19:04.741Z,-82
2016-09-26T20:24:00.255Z,-83
2016-09-26T20:28:55.927Z,-82
2016-09-26T20:33:51.685Z,-83
2016-09-26T20:38:47.554Z,-83
2016-09-26T20:43:43.849Z,-83
2016-09-26T20:48:40.475Z,-82
2016-09-26T20:53:37.462Z,-81
2016-09-26T20:58:33.812Z,-82
2016-09-26T21:03:30.254Z,-77
2016-09-26T21:08:27.865Z,-78
2016-09-26T21:13:24.112Z,-79
2016-09-26T21:18:21.247Z,-83
2016-09-26T21:23:17.526Z,-80
2016-09-26T21:28:14.353Z,-78
2016-09-26T21:33:10.899Z,-78
2016-09-26T21:38:07.501Z,-78
2016-09-26T21:43:03.930Z,-80
2016-09-26T21:48:00.841Z,-79
2016-09-26T21:52:56.999Z,-80
2016-09-26T21:57:53.892Z,-79
2016-09-26T22:02:50.487Z,-80
2016-09-26T22:07:46.734Z,-80
2016-09-26T22:12:43.743Z,-78
2016-09-26T22:17:40.492Z,-79
2016-09-26T22:22:37.207Z,-79
2016-09-26T22:27:33.741Z,-79
2016-09-26T22:32:30.329Z,-80
2016-09-26T22:37:29.056Z,-79
2016-09-26T22:42:25.492Z,-79
2016-09-26T22:47:21.957Z,-78
2016-09-26T22:52:18.927Z,-79
2016-09-26T22:57:15.401Z,-76
2016-09-26T23:02:11.594Z,-77
2016-09-26T23:07:08.159Z,-76
2016-09-26T23:12:04.886Z,-77
2016-09-26T23:17:01.689Z,-77
2016-09-26T23:21:58.256Z,-79
2016-09-26T23:26:55.590Z,-81
2016-09-26T23:31:52.605Z,-79
2016-09-26T23:36:49.443Z,-82
2016-09-26T23:41:45.972Z,-79
2016-09-26T23:46:42.841Z,-81
2016-09-26T23:51:39.373Z,-80
2016-09-26T23:56:36.330Z,-79
